TimePDT,TemperatureF,Dew PointF,Humidity,Sea Level PressureIn,VisibilityMPH,Wind Direction,Wind SpeedMPH,Gust SpeedMPH,PrecipitationIn,Events,Conditions,WindDirDegrees,DateUTC
12:56 AM,48.0,44.1,86,30.15,10.0,Calm,Calm,-,N/A,,Mostly Cloudy,0,2013-05-15 07:56:00
1:56 AM,46.0,43.0,89,30.14,10.0,East,3.5,-,N/A,,Mostly Cloudy,100,2013-05-15 08:56:00
2:56 AM,44.1,42.1,93,30.13,10.0,Calm,Calm,-,N/A,,Scattered Clouds,0,2013-05-15 09:56:00
3:56 AM,44.1,43.0,96,30.12,10.0,ESE,3.5,-,N/A,,Scattered Clouds,110,2013-05-15 10:56:00
4:56 AM,42.1,41.0,96,30.12,10.0,ESE,3.5,-,N/A,,Mostly Cloudy,110,2013-05-15 11:56:00
5:56 AM,158.0,42.8,4,30.12,10.0,ESE,4.6,-,N/A,,Mostly Cloudy,120,2013-05-15 12:56:00
6:56 AM,46.9,46.0,97,30.12,10.0,Calm,Calm,-,N/A,,Overcast,0,2013-05-15 13:56:00
7:56 AM,51.1,46.0,83,30.11,10.0,East,5.8,-,N/A,,Overcast,100,2013-05-15 14:56:00
8:56 AM,54.0,45.0,72,30.11,10.0,East,3.5,-,N/A,,Overcast,80,2013-05-15 15:56:00
9:56 AM,55.9,44.1,64,30.10,10.0,Calm,Calm,-,N/A,,Overcast,0,2013-05-15 16:56:00
10:56 AM,54.0,46.0,75,30.10,10.0,WNW,8.1,-,N/A,,Overcast,290,2013-05-15 17:56:00
11:56 AM,55.0,46.0,72,30.09,10.0,WNW,6.9,-,N/A,,Overcast,290,2013-05-15 18:56:00
12:56 PM,57.0,46.9,69,30.07,10.0,NW,5.8,-,N/A,,Mostly Cloudy,310,2013-05-15 19:56:00
1:56 PM,57.0,46.0,67,30.06,10.0,NW,4.6,-,N/A,,Mostly Cloudy,310,2013-05-15 20:56:00
2:56 PM,57.0,46.9,69,30.05,10.0,WNW,5.8,-,N/A,,Overcast,290,2013-05-15 21:56:00
3:56 PM,54.0,46.9,77,30.05,10.0,West,4.6,-,N/A,,Overcast,260,2013-05-15 22:56:00
4:21 PM,53.6,46.4,77,30.04,8.0,West,5.8,-,0.00,Rain,Light Rain,260,2013-05-15 23:21:00
4:56 PM,54.0,46.0,75,30.05,10.0,WSW,8.1,-,0.00,Rain,Light Rain,250,2013-05-15 23:56:00
5:56 PM,52.0,48.0,86,30.05,10.0,WSW,8.1,-,0.00,Rain,Light Rain,240,2013-05-16 00:56:00
6:56 PM,52.0,46.0,80,30.05,8.0,SW,5.8,-,0.00,Rain,Light Rain,230,2013-05-16 01:56:00
7:56 PM,51.1,46.0,83,30.05,6.0,Calm,Calm,-,0.02,Rain,Light Rain,0,2013-05-16 02:56:00
8:56 PM,50.0,48.0,93,30.05,8.0,Calm,Calm,-,0.02,Rain,Light Rain,0,2013-05-16 03:56:00
9:56 PM,51.1,48.9,92,30.05,10.0,East,6.9,-,0.01,Rain,Light Rain,100,2013-05-16 04:56:00
10:09 PM,51.8,50.0,94,30.03,10.0,East,5.8,-,0.00,Rain,Light Rain,100,2013-05-16 05:09:00
10:56 PM,52.0,50.0,93,30.04,10.0,East,5.8,-,0.00,Rain,Light Rain,90,2013-05-16 05:56:00
11:56 PM,53.1,48.9,86,30.04,10.0,East,5.8,-,0.00,,Overcast,100,2013-05-16 06:56:00